YYWG weather

Yarrawonga Airport
Victoria, Australia

Public forecast

Using degrees Celsius for public forecast. Weather courtesy of forecast.io.

Closest aviation weather report (METAR) to Yarrawonga Airport

Closest report is Wangaratta Airport, 26.9 nm (49.7 km) SSE. Retrieved 2020/01/29 04:00 UTC (17 minutes ago):

YWGT 290400Z AUTO 22009KT 200V260 9999 // NCD 35/M03 Q1013

Closest aviation forecast (TAF) to Yarrawonga Airport

Closest forecast is Wangaratta Airport, 26.9 nm (49.7 km) SSE. Retrieved 2020-01-29 02:33 UTC (2 hours ago):

TAF YWGT 290110Z 2902/2914 23010KT CAVOK BECMG 2909/2911 VRB05KT CAVOK